Time;durP1;ratioP1;P1;durP2;ratioP2;P2;SDS_P1;SDS_P2;PMS_P1;PMS_P2;Temp;Humidity;BMP_temperature;BMP_pressure;BME280_temperature;BME280_humidity;BME280_pressure;Samples;Min_cycle;Max_cycle;Signal;HPM_P1;HPM_P2
2023/05/21 00:00:57;;;;;;;;;;;;;;;21.44;45.77;101936.91;5052718;28;19921;-70
2023/05/21 00:03:25;;;;;;;;;;;;;;;21.44;45.70;101934.19;5037256;28;19925;-70
2023/05/21 00:05:50;;;;;;;;;;;;;;;21.44;45.55;101927.94;5038216;28;19944;-70
2023/05/21 00:08:16;;;;;;;;;;;;;;;21.44;45.51;101936.06;5055516;28;19921;-70
2023/05/21 00:10:41;;;;;;;;;;;;;;;21.42;45.38;101928.13;5033818;28;20023;-70
2023/05/21 00:13:07;;;;;;;;;;;;;;;21.43;45.62;101924.41;5045267;28;19916;-70
2023/05/21 00:15:33;;;;;;;;;;;;;;;21.42;45.67;101919.16;5036507;28;19944;-70
2023/05/21 00:17:58;;;;;;;;;;;;;;;21.41;45.66;101917.47;5056839;28;19917;-70
2023/05/21 00:20:23;;;;;;;;;;;;;;;21.40;45.34;101919.28;5039764;28;19921;-70
2023/05/21 00:22:48;;;;;;;;;;;;;;;21.40;45.67;101919.28;5039441;28;19952;-70
2023/05/21 00:25:13;;;;;;;;;;;;;;;21.40;45.66;101913.03;5053588;28;19920;-70
2023/05/21 00:27:39;;;;;;;;;;;;;;;21.40;45.41;101911.19;5058005;28;20296;-70
2023/05/21 00:30:04;;;;;;;;;;;;;;;21.39;45.48;101898.66;5055176;28;19923;-70
2023/05/21 00:32:29;;;;;;;;;;;;;;;21.39;45.26;101893.25;5059812;28;19924;-70
2023/05/21 00:34:55;;;;;;;;;;;;;;;21.39;45.61;101895.13;5057532;28;19980;-70
2023/05/21 00:37:20;;;;;;;;;;;;;;;21.38;45.59;101894.28;5042203;28;19921;-70
2023/05/21 00:39:45;;;;;;;;;;;;;;;21.38;45.58;101904.25;5044124;28;19916;-70
2023/05/21 00:42:11;;;;;;;;;;;;;;;21.37;45.25;101898.00;5043108;28;19921;-70
2023/05/21 00:44:36;;;;;;;;;;;;;;;21.37;45.34;101895.28;5055623;28;20328;-70
2023/05/21 00:47:01;;;;;;;;;;;;;;;21.36;45.58;101896.28;5054203;28;20016;-70
2023/05/21 00:49:27;;;;;;;;;;;;;;;21.36;45.54;101893.56;5039284;28;20377;-70
2023/05/21 00:51:53;;;;;;;;;;;;;;;21.35;45.45;101886.47;5033833;28;19926;-70
2023/05/21 00:54:18;;;;;;;;;;;;;;;21.36;45.51;101895.44;5058022;28;19917;-70
2023/05/21 00:56:44;;;;;;;;;;;;;;;21.34;45.51;101890.19;5055189;28;19937;-70
2023/05/21 00:59:09;;;;;;;;;;;;;;;21.34;45.66;101890.19;5031810;28;19925;-69
2023/05/21 01:01:35;;;;;;;;;;;;;;;21.34;45.26;101890.19;5057570;28;20023;-70
2023/05/21 01:04:01;;;;;;;;;;;;;;;21.33;45.25;101891.22;5053502;28;19921;-70
2023/05/21 01:06:27;;;;;;;;;;;;;;;21.33;45.55;101888.50;5029144;28;20449;-70
2023/05/21 01:08:52;;;;;;;;;;;;;;;21.31;45.26;101885.06;5054819;28;19951;-70
2023/05/21 01:11:17;;;;;;;;;;;;;;;21.33;45.62;101890.38;5044717;28;19917;-70
2023/05/21 01:13:43;;;;;;;;;;;;;;;21.30;45.31;101877.97;5041187;28;19921;-70
2023/05/21 01:16:08;;;;;;;;;;;;;;;21.31;45.20;101886.91;5053888;28;19917;-70
2023/05/21 01:18:36;;;;;;;;;;;;;;;21.30;45.47;101880.66;5039536;28;19924;-70
2023/05/21 01:21:02;;;;;;;;;;;;;;;21.29;45.47;101878.97;5035774;28;20364;-70
2023/05/21 01:23:27;;;;;;;;;;;;;;;21.29;45.59;101876.28;5035939;28;19917;-70
2023/05/21 01:25:52;;;;;;;;;;;;;;;21.29;45.25;101873.56;5051301;28;19928;-70
2023/05/21 01:28:17;;;;;;;;;;;;;;;21.28;45.48;101871.00;5043185;28;19968;-70
2023/05/21 01:30:43;;;;;;;;;;;;;;;21.28;45.45;101869.19;5056735;28;19926;-69
2023/05/21 01:33:11;;;;;;;;;;;;;;;21.28;45.53;101865.59;5050810;28;19927;-70
2023/05/21 01:35:46;;;;;;;;;;;;;;;21.27;45.52;101867.47;5059322;28;19917;-70
2023/05/21 01:38:19;;;;;;;;;;;;;;;21.28;45.36;101865.59;5032108;28;19924;-69
2023/05/21 01:40:46;;;;;;;;;;;;;;;21.26;45.28;101864.94;5056088;28;19992;-70
2023/05/21 01:43:11;;;;;;;;;;;;;;;21.25;45.46;101861.38;5048398;28;19917;-70
2023/05/21 01:45:37;;;;;;;;;;;;;;;21.25;45.40;101858.66;5043966;28;19928;-70
2023/05/21 01:48:04;;;;;;;;;;;;;;;21.25;45.31;101852.41;5057405;28;19916;-70
2023/05/21 01:50:30;;;;;;;;;;;;;;;21.25;45.28;101861.38;5055093;28;19920;-70
2023/05/21 01:52:57;;;;;;;;;;;;;;;21.24;45.59;101856.97;5037066;28;19921;-69
2023/05/21 01:55:23;;;;;;;;;;;;;;;21.23;45.25;101858.81;5037942;28;19944;-69
2023/05/21 01:57:52;;;;;;;;;;;;;;;21.22;45.51;101848.16;5057355;28;19979;-70
2023/05/21 02:00:18;;;;;;;;;;;;;;;21.22;45.41;101854.41;5036543;28;19924;-70
2023/05/21 02:02:43;;;;;;;;;;;;;;;21.21;45.37;101846.47;5060148;28;19960;-70
2023/05/21 02:05:08;;;;;;;;;;;;;;;21.21;45.56;101851.88;5054300;28;20405;-70
2023/05/21 02:07:33;;;;;;;;;;;;;;;21.21;45.21;101850.03;5041900;28;19921;-69
2023/05/21 02:09:59;;;;;;;;;;;;;;;21.20;45.52;101853.75;5035499;28;20976;-69
2023/05/21 02:12:24;;;;;;;;;;;;;;;21.20;45.53;101850.19;5054589;28;20452;-69
2023/05/21 02:14:49;;;;;;;;;;;;;;;21.20;45.63;101848.34;5035856;28;19925;-70
2023/05/21 02:17:16;;;;;;;;;;;;;;;21.20;45.26;101844.78;5049462;28;19928;-70
2023/05/21 02:19:43;;;;;;;;;;;;;;;21.18;45.33;101841.38;5034372;28;19920;-70
2023/05/21 02:22:08;;;;;;;;;;;;;;;21.18;45.41;101850.34;5058971;28;19931;-70
2023/05/21 02:24:34;;;;;;;;;;;;;;;21.18;45.16;101844.09;5038880;28;19916;-70
2023/05/21 02:26:59;;;;;;;;;;;;;;;21.17;45.34;101842.41;5048526;28;19927;-71
2023/05/21 02:29:24;;;;;;;;;;;;;;;21.16;45.50;101844.25;5063420;28;19917;-70
2023/05/21 02:31:50;;;;;;;;;;;;;;;21.16;45.42;101838.84;5058120;28;19917;-70
2023/05/21 02:34:15;;;;;;;;;;;;;;;21.16;45.51;101838.84;5057991;28;20281;-70
2023/05/21 02:36:40;;;;;;;;;;;;;;;21.16;45.27;101840.72;5059219;28;20349;-70
2023/05/21 02:39:05;;;;;;;;;;;;;;;21.15;45.38;101839.88;5029071;28;19943;-70
2023/05/21 02:41:30;;;;;;;;;;;;;;;21.15;45.24;101836.28;5039193;28;19921;-70
2023/05/21 02:43:56;;;;;;;;;;;;;;;21.14;45.59;101840.00;5056153;28;19956;-70
2023/05/21 02:46:21;;;;;;;;;;;;;;;21.14;45.55;101840.84;5060786;28;20484;-70
2023/05/21 02:48:46;;;;;;;;;;;;;;;21.14;45.50;101834.59;5056408;28;19942;-69
2023/05/21 02:51:11;;;;;;;;;;;;;;;21.12;45.57;101834.78;5060089;28;19946;-70
2023/05/21 02:53:37;;;;;;;;;;;;;;;21.12;45.29;101831.22;5057507;28;19924;-70
2023/05/21 02:56:02;;;;;;;;;;;;;;;21.11;45.71;101835.78;5061384;28;19917;-70
2023/05/21 02:58:28;;;;;;;;;;;;;;;21.11;45.31;101833.09;5043230;28;20289;-70
2023/05/21 03:00:53;;;;;;;;;;;;;;;21.10;45.55;101831.38;5044524;28;19979;-70
2023/05/21 03:03:18;;;;;;;;;;;;;;;21.10;45.43;101831.38;5043296;28;20010;-70
2023/05/21 03:05:44;;;;;;;;;;;;;;;21.11;45.33;101837.63;5053434;28;19940;-70
2023/05/21 03:08:09;;;;;;;;;;;;;;;21.08;45.68;101836.09;5055352;28;19921;-70
2023/05/21 03:10:35;;;;;;;;;;;;;;;21.08;45.61;101825.28;5054976;28;20279;-70
2023/05/21 03:13:03;;;;;;;;;;;;;;;21.08;45.31;101833.41;5055892;28;19986;-70
2023/05/21 03:15:32;;;;;;;;;;;;;;;21.08;45.44;101840.66;5054508;28;19928;-71
2023/05/21 03:17:57;;;;;;;;;;;;;;;21.07;45.34;101839.81;5055570;28;19927;-71
2023/05/21 03:20:22;;;;;;;;;;;;;;;21.06;45.66;101838.09;5045195;28;19995;-71
2023/05/21 03:22:48;;;;;;;;;;;;;;;21.06;45.44;101831.84;5038782;28;19979;-70
2023/05/21 03:25:13;;;;;;;;;;;;;;;21.05;45.72;101827.47;5057970;28;19963;-70
2023/05/21 03:27:39;;;;;;;;;;;;;;;21.05;45.46;101824.75;5054361;28;19966;-71
2023/05/21 03:30:04;;;;;;;;;;;;;;;21.05;45.34;101830.16;5060863;28;20377;-70
2023/05/21 03:32:29;;;;;;;;;;;;;;;21.04;45.73;101829.31;5038124;28;19924;-70
2023/05/21 03:34:54;;;;;;;;;;;;;;;21.03;45.50;101832.19;5042528;28;19939;-70
2023/05/21 03:37:20;;;;;;;;;;;;;;;21.03;45.79;101824.06;5055784;28;19924;-70
2023/05/21 03:39:45;;;;;;;;;;;;;;;21.02;45.66;101825.06;5053432;28;19970;-70
2023/05/21 03:42:12;;;;;;;;;;;;;;;21.02;45.72;101822.34;5045091;28;20449;-70
2023/05/21 03:44:37;;;;;;;;;;;;;;;21.01;45.38;101826.06;5037595;28;19917;-70
2023/05/21 03:47:03;;;;;;;;;;;;;;;21.01;45.53;101821.50;5053999;28;19971;-70
2023/05/21 03:49:28;;;;;;;;;;;;;;;21.01;45.42;101828.78;5058224;28;19945;-70
2023/05/21 03:51:53;;;;;;;;;;;;;;;20.99;45.66;101820.00;5056376;28;19964;-70
2023/05/21 03:54:18;;;;;;;;;;;;;;;20.99;45.67;101828.09;5042282;28;19917;-71
2023/05/21 03:56:44;;;;;;;;;;;;;;;20.99;45.68;101822.69;5060060;28;19917;-70
2023/05/21 03:59:09;;;;;;;;;;;;;;;20.98;45.51;101819.13;5054612;28;19931;-70
2023/05/21 04:01:35;;;;;;;;;;;;;;;20.98;45.74;101821.81;5034618;28;19932;-70
2023/05/21 04:04:00;;;;;;;;;;;;;;;20.97;45.52;101818.28;5034391;28;19921;-70
2023/05/21 04:06:25;;;;;;;;;;;;;;;20.97;45.63;101826.38;5053222;28;19924;-70
2023/05/21 04:08:51;;;;;;;;;;;;;;;20.96;45.68;101824.69;5052847;28;19917;-70
2023/05/21 04:11:16;;;;;;;;;;;;;;;20.95;45.62;101814.91;5020162;28;19917;-70
2023/05/21 04:13:41;;;;;;;;;;;;;;;20.96;45.53;101827.41;4991947;28;1764249;-70
2023/05/21 04:16:08;;;;;;;;;;;;;;;20.96;45.44;101818.44;5053726;28;19944;-70
2023/05/21 04:18:33;;;;;;;;;;;;;;;20.95;45.59;101823.00;5040184;28;19921;-70
2023/05/21 04:20:59;;;;;;;;;;;;;;;20.95;45.25;101833.81;5053463;28;19976;-70
2023/05/21 04:23:24;;;;;;;;;;;;;;;20.94;45.69;101834.84;5045030;28;19927;-70
2023/05/21 04:25:49;;;;;;;;;;;;;;;20.94;45.63;101834.84;5058407;28;19921;-70
2023/05/21 04:28:18;;;;;;;;;;;;;;;20.94;45.63;101831.25;5053535;28;19924;-71
2023/05/21 04:30:44;;;;;;;;;;;;;;;20.95;45.67;101839.25;5058304;28;20023;-70
2023/05/21 04:33:09;;;;;;;;;;;;;;;20.93;45.47;101838.53;5055113;28;19998;-71
2023/05/21 04:35:35;;;;;;;;;;;;;;;20.94;45.47;101840.25;5057806;28;19921;-72
2023/05/21 04:38:00;;;;;;;;;;;;;;;20.94;45.45;101836.66;5054098;28;20275;-72
2023/05/21 04:40:25;;;;;;;;;;;;;;;20.93;45.67;101838.53;5036086;28;19924;-72
2023/05/21 04:42:51;;;;;;;;;;;;;;;20.94;45.56;101842.94;5057080;28;20056;-73
2023/05/21 04:45:19;;;;;;;;;;;;;;;20.94;45.51;101847.47;5058853;28;19923;-73
2023/05/21 04:47:45;;;;;;;;;;;;;;;20.94;45.63;101848.34;5056991;28;19932;-72
2023/05/21 04:50:10;;;;;;;;;;;;;;;20.94;45.57;101839.38;5054506;28;19916;-71
2023/05/21 04:52:36;;;;;;;;;;;;;;;20.95;45.72;101847.34;5040386;28;19916;-71
2023/05/21 04:55:01;;;;;;;;;;;;;;;20.95;46.22;101841.94;5057000;28;19927;-71
2023/05/21 04:57:27;;;;;;;;;;;;;;;20.95;46.32;101846.50;5038908;28;20551;-70
2023/05/21 04:59:52;;;;;;;;;;;;;;;20.95;46.10;101841.94;5036625;28;19928;-72
2023/05/21 05:02:17;;;;;;;;;;;;;;;20.95;46.05;101839.25;5057542;28;19925;-72
2023/05/21 05:04:42;;;;;;;;;;;;;;;20.95;46.30;101839.25;5054594;28;19932;-71
2023/05/21 05:07:08;;;;;;;;;;;;;;;20.96;46.38;101840.06;5055307;28;19920;-72
2023/05/21 05:09:33;;;;;;;;;;;;;;;20.94;46.53;101832.13;5057680;28;19917;-72
2023/05/21 05:11:58;;;;;;;;;;;;;;;20.95;46.52;101839.25;5042842;28;20146;-72
2023/05/21 05:14:23;;;;;;;;;;;;;;;20.95;46.71;101841.94;5058014;28;19961;-72
2023/05/21 05:16:49;;;;;;;;;;;;;;;20.94;46.72;101825.84;5058855;28;20370;-72
2023/05/21 05:19:14;;;;;;;;;;;;;;;20.94;46.81;101831.25;5039137;28;19963;-72
2023/05/21 05:21:39;;;;;;;;;;;;;;;20.94;46.73;101834.84;5055414;28;19927;-71
2023/05/21 05:24:05;;;;;;;;;;;;;;;20.95;46.84;101824.88;5043241;28;19920;-72
2023/05/21 05:26:30;;;;;;;;;;;;;;;20.95;46.74;101832.97;5058772;28;19913;-73
2023/05/21 05:28:55;;;;;;;;;;;;;;;20.95;46.93;101828.41;5059238;28;19916;-74
2023/05/21 05:31:20;;;;;;;;;;;;;;;20.94;46.79;101826.72;5039497;28;19917;-73
2023/05/21 05:33:45;;;;;;;;;;;;;;;20.94;46.97;101831.25;5056529;28;19924;-73
2023/05/21 05:36:11;;;;;;;;;;;;;;;20.94;47.05;101823.16;5055601;28;19920;-73
2023/05/21 05:38:36;;;;;;;;;;;;;;;20.94;47.03;101821.31;5047787;28;19921;-73
2023/05/21 05:41:01;;;;;;;;;;;;;;;20.94;46.81;101825.84;5040841;28;20282;-72
2023/05/21 05:43:26;;;;;;;;;;;;;;;20.94;46.78;101832.13;5050243;28;19920;-70
2023/05/21 05:45:51;;;;;;;;;;;;;;;20.94;47.15;101825.84;5031338;28;19924;-70
2023/05/21 05:48:17;;;;;;;;;;;;;;;20.94;46.98;101832.13;5035825;28;20447;-74
2023/05/21 05:50:42;;;;;;;;;;;;;;;20.94;46.96;101824.03;5051103;28;19923;-74
2023/05/21 05:53:08;;;;;;;;;;;;;;;20.95;47.18;101832.97;5040126;28;20025;-74
2023/05/21 05:55:33;;;;;;;;;;;;;;;20.94;46.97;101823.16;5034626;28;19913;-74
2023/05/21 05:57:58;;;;;;;;;;;;;;;20.93;47.25;101833.13;5042203;28;19924;-74
2023/05/21 06:00:23;;;;;;;;;;;;;;;20.94;47.23;101825.84;5035766;28;20015;-74
2023/05/21 06:02:48;;;;;;;;;;;;;;;20.94;47.05;101832.13;5049085;28;20011;-74
2023/05/21 06:05:14;;;;;;;;;;;;;;;20.94;47.11;101834.84;5037141;28;19913;-74
2023/05/21 06:07:39;;;;;;;;;;;;;;;20.94;47.23;101832.13;5025253;28;19943;-74
2023/05/21 06:10:08;;;;;;;;;;;;;;;20.94;47.02;101824.03;5036153;28;19924;-75
2023/05/21 06:12:33;;;;;;;;;;;;;;;20.93;47.28;101819.59;5029598;28;19959;-74
2023/05/21 06:14:58;;;;;;;;;;;;;;;20.94;47.12;101834.84;5027957;28;20030;-73
2023/05/21 06:17:24;;;;;;;;;;;;;;;20.94;47.11;101831.25;5029379;28;19955;-74
2023/05/21 06:19:49;;;;;;;;;;;;;;;20.94;47.42;101824.03;5040309;28;19917;-74
2023/05/21 06:22:14;;;;;;;;;;;;;;;20.94;47.31;101832.13;5051133;28;19921;-74
2023/05/21 06:24:40;;;;;;;;;;;;;;;20.94;47.28;101831.25;5045792;28;19912;-73
2023/05/21 06:27:05;;;;;;;;;;;;;;;20.94;47.15;101834.84;5053347;28;19917;-73
2023/05/21 06:29:30;;;;;;;;;;;;;;;20.93;47.67;101833.13;5041799;28;19999;-73
2023/05/21 06:31:55;;;;;;;;;;;;;;;20.94;47.53;101833.97;5052681;28;20011;-71
2023/05/21 06:34:20;;;;;;;;;;;;;;;20.94;47.13;101833.97;5048107;28;19917;-73
2023/05/21 06:36:46;;;;;;;;;;;;;;;20.94;47.34;101834.84;5039548;28;20610;-73
2023/05/21 06:39:14;;;;;;;;;;;;;;;20.93;47.53;101819.59;5052499;28;19984;-76
2023/05/21 06:41:39;;;;;;;;;;;;;;;20.93;47.56;101818.75;5037522;28;19920;-76
2023/05/21 06:44:04;;;;;;;;;;;;;;;20.93;47.53;101825.00;5053620;28;19965;-76
2023/05/21 06:46:30;;;;;;;;;;;;;;;20.94;47.54;101820.44;5057419;28;19971;-75
2023/05/21 06:48:55;;;;;;;;;;;;;;;20.94;47.26;101817.75;5055490;28;20427;-73
2023/05/21 06:51:20;;;;;;;;;;;;;;;20.92;47.29;101803.56;5020742;28;19984;-72
2023/05/21 06:53:45;;;;;;;;;;;;;;;20.92;47.48;101814.38;5056902;28;19962;-72
2023/05/21 06:56:11;;;;;;;;;;;;;;;20.92;47.58;101809.81;5051088;28;19921;-72
2023/05/21 06:58:37;;;;;;;;;;;;;;;20.92;47.29;101804.41;5039402;28;20335;-72
2023/05/21 07:01:02;;;;;;;;;;;;;;;20.92;47.43;101807.09;5054594;28;19964;-72
2023/05/21 07:03:27;;;;;;;;;;;;;;;20.92;47.20;101807.09;5056090;28;19921;-71
2023/05/21 07:05:52;;;;;;;;;;;;;;;20.92;47.25;101807.09;5053365;28;19932;-71
2023/05/21 07:08:18;;;;;;;;;;;;;;;20.92;47.19;101804.41;5057388;28;19928;-72
2023/05/21 07:10:44;;;;;;;;;;;;;;;20.92;47.10;101809.81;5040372;28;19920;-72
2023/05/21 07:13:10;;;;;;;;;;;;;;;20.93;47.32;101810.66;5057892;28;20621;-72
2023/05/21 07:15:35;;;;;;;;;;;;;;;20.92;47.14;101807.09;5043073;28;20393;-72
2023/05/21 07:18:00;;;;;;;;;;;;;;;20.93;47.24;101813.34;5058487;28;19916;-72
2023/05/21 07:20:25;;;;;;;;;;;;;;;20.93;47.29;101813.34;5054956;28;19921;-72
2023/05/21 07:22:50;;;;;;;;;;;;;;;20.93;47.03;101816.06;5039322;28;19923;-73
2023/05/21 07:25:16;;;;;;;;;;;;;;;20.94;47.29;101812.34;5039618;28;19924;-72
2023/05/21 07:27:41;;;;;;;;;;;;;;;20.92;47.03;101804.41;5054747;28;19928;-73
2023/05/21 07:30:08;;;;;;;;;;;;;;;20.93;47.05;101814.19;5053107;28;19917;-72
2023/05/21 07:32:33;;;;;;;;;;;;;;;20.94;47.21;101809.63;5053914;28;19917;-72
2023/05/21 07:35:00;;;;;;;;;;;;;;;20.93;47.24;101808.78;5051229;28;20010;-72
2023/05/21 07:37:26;;;;;;;;;;;;;;;20.93;47.11;101800.69;5054574;28;19916;-72
2023/05/21 07:39:51;;;;;;;;;;;;;;;20.93;47.01;101803.38;5057692;28;19939;-72
2023/05/21 07:42:17;;;;;;;;;;;;;;;20.94;47.21;101798.81;5058545;28;19950;-71
2023/05/21 07:44:42;;;;;;;;;;;;;;;20.95;47.02;101804.09;5037221;28;19948;-71
2023/05/21 07:47:07;;;;;;;;;;;;;;;20.95;47.06;101804.09;5057044;28;19944;-72
2023/05/21 07:49:32;;;;;;;;;;;;;;;20.95;47.34;101801.38;5040027;28;19921;-72
2023/05/21 07:51:57;;;;;;;;;;;;;;;20.97;47.30;101801.22;5056665;28;19917;-73
2023/05/21 07:54:22;;;;;;;;;;;;;;;20.97;47.01;101801.22;5058389;28;19931;-73
2023/05/21 07:56:48;;;;;;;;;;;;;;;20.98;47.20;101792.09;5040247;28;20641;-73
2023/05/21 07:59:13;;;;;;;;;;;;;;;20.99;47.26;101787.56;5050971;28;19968;-73
2023/05/21 08:01:39;;;;;;;;;;;;;;;20.99;47.25;101783.00;5054642;28;19921;-72
2023/05/21 08:04:05;;;;;;;;;;;;;;;21.00;47.39;101791.94;5053904;28;19967;-73
2023/05/21 08:06:32;;;;;;;;;;;;;;;21.01;47.59;101789.06;5051540;28;19916;-72
2023/05/21 08:08:58;;;;;;;;;;;;;;;21.01;47.30;101786.38;5054780;28;19917;-73
2023/05/21 08:11:23;;;;;;;;;;;;;;;21.02;47.40;101792.63;5052861;28;19946;-73
2023/05/21 08:13:49;;;;;;;;;;;;;;;21.03;47.75;101788.94;5054303;28;19921;-71
2023/05/21 08:16:14;;;;;;;;;;;;;;;21.03;47.95;101791.63;5044653;28;19927;-72
2023/05/21 08:18:40;;;;;;;;;;;;;;;21.05;47.64;101786.91;5050204;28;19959;-72
2023/05/21 08:21:05;;;;;;;;;;;;;;;21.04;47.68;101788.75;5040160;28;19963;-72
2023/05/21 08:23:30;;;;;;;;;;;;;;;21.05;47.79;101778.78;5036991;28;20554;-72
2023/05/21 08:25:55;;;;;;;;;;;;;;;21.05;47.76;101784.19;5054264;28;19940;-71
2023/05/21 08:28:21;;;;;;;;;;;;;;;21.05;47.67;101779.63;5036854;28;19913;-72
2023/05/21 08:30:46;;;;;;;;;;;;;;;21.05;47.74;101774.22;5039440;28;19917;-74
2023/05/21 08:33:11;;;;;;;;;;;;;;;21.06;47.83;101783.19;5023151;28;19968;-75
2023/05/21 08:35:36;;;;;;;;;;;;;;;21.06;47.80;101780.47;5031993;28;19913;-73
2023/05/21 08:38:01;;;;;;;;;;;;;;;21.06;47.84;101781.31;5055202;28;19967;-73
2023/05/21 08:40:27;;;;;;;;;;;;;;;21.07;48.01;101788.44;5056531;28;19917;-73
2023/05/21 08:42:52;;;;;;;;;;;;;;;21.08;47.91;101783.88;5040203;28;19916;-73
2023/05/21 08:45:21;;;;;;;;;;;;;;;21.08;47.71;101787.44;5032044;28;19920;-73
2023/05/21 08:47:46;;;;;;;;;;;;;;;21.07;47.84;101785.75;5060432;28;19994;-72
2023/05/21 08:50:15;;;;;;;;;;;;;;;21.09;48.00;101790.97;5037959;28;19956;-73
2023/05/21 08:52:40;;;;;;;;;;;;;;;21.09;47.73;101783.72;5057353;28;19921;-72
2023/05/21 08:55:06;;;;;;;;;;;;;;;21.09;47.76;101781.00;5045240;28;19917;-71
2023/05/21 08:57:31;;;;;;;;;;;;;;;21.10;47.77;101788.09;5047271;28;19917;-73
2023/05/21 08:59:57;;;;;;;;;;;;;;;21.11;47.77;101775.41;5053478;28;19916;-72
2023/05/21 09:02:25;;;;;;;;;;;;;;;21.11;48.04;101778.13;5043962;28;19917;-72
2023/05/21 09:04:57;;;;;;;;;;;;;;;21.11;47.88;101787.13;5039555;28;19924;-72
2023/05/21 09:07:30;;;;;;;;;;;;;;;21.09;48.62;101780.16;5037161;28;19917;-72
2023/05/21 09:09:56;;;;;;;;;;;;;;;21.01;49.18;101777.41;5056600;28;19935;-72
2023/05/21 09:12:25;;;;;;;;;;;;;;;20.96;49.31;101772.50;5046033;28;19944;-72
2023/05/21 09:14:50;;;;;;;;;;;;;;;20.92;49.59;101777.38;5040257;28;20298;-72
2023/05/21 09:17:15;;;;;;;;;;;;;;;20.87;49.84;101774.31;5036126;28;19913;-72
2023/05/21 09:20:00;;;;;;;;;;;;;;;20.84;49.54;101774.63;5037883;28;19920;-75
2023/05/21 09:22:25;;;;;;;;;;;;;;;20.85;49.64;101776.31;5052857;28;19921;-71
2023/05/21 09:24:50;;;;;;;;;;;;;;;20.85;49.63;101770.06;5041267;28;19921;-72
2023/05/21 09:27:16;;;;;;;;;;;;;;;20.88;49.48;101776.00;5052416;28;20412;-71
2023/05/21 09:29:41;;;;;;;;;;;;;;;20.89;49.41;101764.16;5045281;28;19918;-72
2023/05/21 09:32:06;;;;;;;;;;;;;;;20.90;49.42;101768.59;5052036;28;20263;-72
2023/05/21 09:34:34;;;;;;;;;;;;;;;20.92;49.64;101769.25;5032373;28;19921;-72
2023/05/21 09:37:01;;;;;;;;;;;;;;;20.96;49.18;101765.22;5056093;28;19917;-71
2023/05/21 09:39:26;;;;;;;;;;;;;;;20.99;49.43;101761.38;5049969;28;19923;-72
2023/05/21 09:41:51;;;;;;;;;;;;;;;21.01;49.67;101767.44;5045419;28;19955;-70
2023/05/21 09:44:17;;;;;;;;;;;;;;;21.04;49.51;101758.16;5053518;28;19996;-72
2023/05/21 09:46:42;;;;;;;;;;;;;;;21.07;49.44;101768.63;5051673;28;20396;-72
2023/05/21 09:49:20;;;;;;;;;;;;;;;21.09;49.29;101762.06;5035987;28;19924;-71
2023/05/21 09:51:46;;;;;;;;;;;;;;;21.12;49.15;101758.22;5055193;28;19932;-70
2023/05/21 09:54:11;;;;;;;;;;;;;;;21.13;48.86;101752.63;5025224;28;19913;-70
2023/05/21 09:56:36;;;;;;;;;;;;;;;21.15;49.14;101747.91;5044223;28;19913;-71
2023/05/21 09:59:03;;;;;;;;;;;;;;;21.15;49.07;101756.03;5051637;28;19917;-71
2023/05/21 10:01:29;;;;;;;;;;;;;;;21.17;49.07;101754.00;5042855;28;19918;-72
2023/05/21 10:03:56;;;;;;;;;;;;;;;21.18;49.02;101750.28;5055594;28;19913;-71
2023/05/21 10:06:23;;;;;;;;;;;;;;;21.18;49.19;101749.44;5051868;28;19913;-70
2023/05/21 10:08:48;;;;;;;;;;;;;;;21.19;48.87;101745.72;5051347;28;19975;-70
2023/05/21 10:11:13;;;;;;;;;;;;;;;21.21;48.78;101736.44;5038160;28;19921;-72
2023/05/21 10:13:40;;;;;;;;;;;;;;;21.22;48.81;101739.97;5034583;28;19917;-74
2023/05/21 10:16:05;;;;;;;;;;;;;;;21.25;48.92;101736.97;5057589;28;19927;-73
2023/05/21 10:18:30;;;;;;;;;;;;;;;21.25;49.46;101736.97;5054458;28;20004;-73
2023/05/21 10:20:56;;;;;;;;;;;;;;;21.25;49.30;101731.56;5055664;28;20019;-72
2023/05/21 10:23:22;;;;;;;;;;;;;;;21.28;49.42;101728.53;5037688;28;19979;-73
2023/05/21 10:25:47;;;;;;;;;;;;;;;21.28;49.29;101724.94;5038460;28;19944;-74
2023/05/21 10:28:14;;;;;;;;;;;;;;;21.30;49.43;101736.47;5049775;28;20338;-73
2023/05/21 10:30:39;;;;;;;;;;;;;;;21.31;49.12;101722.75;5037607;28;19917;-73
2023/05/21 10:33:04;;;;;;;;;;;;;;;21.33;49.29;101726.19;5029620;28;19984;-72
2023/05/21 10:35:30;;;;;;;;;;;;;;;21.34;49.48;101724.34;5050132;28;19921;-72
2023/05/21 10:37:55;;;;;;;;;;;;;;;21.36;49.40;101716.88;5049554;28;19936;-73
2023/05/21 10:40:21;;;;;;;;;;;;;;;21.38;49.29;101725.69;5038027;28;19912;-70
2023/05/21 10:43:04;;;;;;;;;;;;;;;21.38;49.23;101717.59;5067319;28;19921;-73
2023/05/21 10:45:32;;;;;;;;;;;;;;;21.40;49.67;101710.97;5062708;28;19931;-73
2023/05/21 10:48:14;;;;;;;;;;;;;;;21.40;49.29;101702.88;5057721;28;20000;-73
2023/05/21 10:50:40;;;;;;;;;;;;;;;21.43;49.48;101704.41;5044744;28;19921;-73
2023/05/21 10:53:23;;;;;;;;;;;;;;;21.43;49.40;101702.53;5056529;28;19936;-73
2023/05/21 10:55:51;;;;;;;;;;;;;;;21.44;49.41;101704.22;5061319;28;19913;-73
2023/05/21 10:58:20;;;;;;;;;;;;;;;21.46;49.23;101699.50;5048593;28;19920;-71
2023/05/21 11:00:45;;;;;;;;;;;;;;;21.47;49.33;101694.94;5059272;28;20097;-71
2023/05/21 11:03:11;;;;;;;;;;;;;;;21.49;49.54;101690.19;5051273;28;20396;-71
2023/05/21 11:05:40;;;;;;;;;;;;;;;21.51;49.20;101687.34;5055143;28;19913;-71
2023/05/21 11:08:18;;;;;;;;;;;;;;;21.51;49.33;101696.31;5048410;28;19916;-72
2023/05/21 11:10:44;;;;;;;;;;;;;;;21.52;49.36;101689.03;5060148;28;19927;-71
2023/05/21 11:13:11;;;;;;;;;;;;;;;21.52;49.29;101689.88;5058438;28;19912;-73
2023/05/21 11:15:55;;;;;;;;;;;;;;;21.54;49.50;101685.16;5040409;28;19925;-71
2023/05/21 11:18:20;;;;;;;;;;;;;;;21.55;49.43;101689.53;5054693;28;19916;-72
2023/05/21 11:20:49;;;;;;;;;;;;;;;21.56;49.46;101683.13;5039959;28;19962;-71
2023/05/21 11:23:14;;;;;;;;;;;;;;;21.58;49.64;101686.50;5025557;28;19916;-71
2023/05/21 11:25:40;;;;;;;;;;;;;;;21.60;49.50;101675.50;5058907;28;19921;-71
2023/05/21 11:28:08;;;;;;;;;;;;;;;21.61;49.24;101678.03;5055750;28;19972;-72
2023/05/21 11:30:33;;;;;;;;;;;;;;;21.62;49.20;101668.94;5040305;28;19923;-72
2023/05/21 11:33:09;;;;;;;;;;;;;;;21.63;49.45;101676.03;5058127;28;20063;-72
2023/05/21 11:35:55;;;;;;;;;;;;;;;21.66;49.61;101675.69;5055464;28;19991;-70
2023/05/21 11:38:20;;;;;;;;;;;;;;;21.71;49.43;101680.59;5042203;28;19964;-71
2023/05/21 11:40:53;;;;;;;;;;;;;;;21.71;49.63;101669.78;5055454;28;19917;-73
2023/05/21 11:43:18;;;;;;;;;;;;;;;21.73;49.72;101666.88;5036567;28;20445;-73
2023/05/21 11:45:46;;;;;;;;;;;;;;;21.72;49.70;101668.75;5055059;28;19927;-73
2023/05/21 11:48:12;;;;;;;;;;;;;;;21.73;49.69;101673.16;5037200;28;19943;-73
2023/05/21 11:50:37;;;;;;;;;;;;;;;21.75;49.91;101672.97;5055767;28;19920;-72
2023/05/21 11:53:03;;;;;;;;;;;;;;;21.75;49.62;101673.84;5053978;28;19960;-72
2023/05/21 11:55:28;;;;;;;;;;;;;;;21.77;49.67;101670.94;5035646;28;19921;-73
2023/05/21 11:57:54;;;;;;;;;;;;;;;21.80;49.67;101667.91;5054704;28;19992;-72
2023/05/21 12:00:20;;;;;;;;;;;;;;;21.81;49.59;101665.03;5041022;28;19952;-72
2023/05/21 12:02:46;;;;;;;;;;;;;;;21.83;49.75;101664.84;5053453;28;19920;-73
2023/05/21 12:05:11;;;;;;;;;;;;;;;21.84;49.81;101656.56;5037614;28;19913;-73
2023/05/21 12:07:37;;;;;;;;;;;;;;;21.86;49.84;101657.25;5051356;28;19939;-73
2023/05/21 12:10:02;;;;;;;;;;;;;;;21.87;50.01;101658.91;5050990;28;19927;-72
2023/05/21 12:12:27;;;;;;;;;;;;;;;21.89;50.07;101662.31;5039112;28;19917;-72
2023/05/21 12:14:53;;;;;;;;;;;;;;;21.91;50.04;101656.72;5036754;28;19933;-72
2023/05/21 12:17:19;;;;;;;;;;;;;;;21.95;49.87;101655.38;5028955;28;19913;-72
2023/05/21 12:19:45;;;;;;;;;;;;;;;21.94;50.01;101656.38;5036439;28;19925;-73
2023/05/21 12:22:10;;;;;;;;;;;;;;;21.93;49.90;101652.00;5037026;28;19917;-73
2023/05/21 12:24:36;;;;;;;;;;;;;;;21.92;50.06;101639.50;5054417;28;19919;-72
2023/05/21 12:27:02;;;;;;;;;;;;;;;21.91;50.03;101646.75;5062268;28;19917;-73
2023/05/21 12:29:27;;;;;;;;;;;;;;;21.90;50.14;101636.94;5033644;28;19913;-72